Hauptseite
METAR-TAF:

METAR-TAF

Flughäfen :

Meierwik

Glücksburg, Deutschland

Breite: 54-50N, Länge: 009-30E, Höhe: 27 m

Beobachtung

Neuester Wetterbericht von vor 11 Minuten, um 21:20 UTC
Wind 15 kt aus Nordwest
Temperatur 12°C
Luftfeuchtigkeit 94%
Luftdruck 1019 hPa
Sichtweite: 5000 m
Durchbrochene Bewölkung in der Höhe von 700 ft
Durchbrochene Bewölkung in der Höhe von 1500 ft
Sprühregen leicht, Regen, feuchter Dunst

METAR: ETGG 232120Z 31015KT 5000 -DZRA BR BKN007 BKN015 12/11 Q1019 GRN

Zeit: 23:31 (21:31 UTC)


TAF: fehlend

Wetterbeobachtungen und Prognosen von mehr als 4000 Flughäfen (METAR und TAF Bericht).

Die verfügbaren Stationen werden durch gelbe und rote Markierungen auf der Karte dargestellt.

Führen Sie die Maus auf sie, um den Namen der Station zu sehen.

Darauf klicken, um die Beobachtung von Wetterbeobachtungen und Prognosen zu sehen.

Um die Karte zu ändern : klicken Sie auf den grünen Tasten mit einem schwarzen Kreuz Zum Vergrößern, auf den grünen Button mit einem Gedankenstrich zu verkleinern, oder auf die grünen Pfeile für benachbarte Karten.


METAR-TAF: